WXM80 ListenWXM80 Stop

You find our weather info also at:

UK Metoffice

WeatherCloud

Weather Underground

Northeastern Weather Network

AWEKAS

Citizen Weather Observer Program (CWOP)

HAMweather, WeatherForYou, PWS Weather


Weather Underground History page Text

Daily Summary for January 30, 2017 Units:  Both    English   Metric
« Previous Day
Next Day »
Daily Weekly Monthly Yearly Custom
  High: Low: Average:
Temperature: 37.5 °F /  3.1 °C 29.4 °F /  -1.4 °C 33.2 °F /  0.7 °C
Dew Point: 26.3 °F /  -3.2 °C 11.5 °F /  -11.4 °C 19.6 °F /  -6.9 °C
Humidity: 80 % 45 % 58 %
Wind Speed: 8.5 mph /  13.7 km/h - 3.8 mph /  6.1 km/h
Wind Gust: 16.0 mph /  25.7 km/h - -
Wind:- - SW
Pressure: 29.94 in /  1013.8 hPa 29.69 in /  1005.3 hPa -
Precipitation: 0.00 in /  0 mm    
Historical Graphs
 
 
Tabular Data for January 30, 2017
Time Temperature Dew Point Pressure Wind Wind Speed Wind Gust Humidity Rainfall Rate (Hourly)
00:01 30.6 °F /  -0.8 °C 21.3 °F /  -5.9 °C 29.70 in /  1005.6 hPa SW 1.0 mph /  1.6 km/h 3.0 mph /  4.8 km/h 68 % 0.00 in /  0 mm
00:06 30.6 °F /  -0.8 °C 21.3 °F /  -5.9 °C 29.70 in /  1005.6 hPa SW 1.3 mph /  2.1 km/h 2.3 mph /  3.7 km/h 68 % 0.00 in /  0 mm
00:11 30.5 °F /  -0.8 °C 21.2 °F /  -6 °C 29.70 in /  1005.6 hPa SW 1.0 mph /  1.6 km/h 1.2 mph /  1.9 km/h 68 % 0.00 in /  0 mm
00:16 30.5 °F /  -0.8 °C 21.5 °F /  -5.8 °C 29.70 in /  1005.6 hPa SW 0.2 mph /  0.3 km/h 1.2 mph /  1.9 km/h 69 % 0.00 in /  0 mm
00:21 30.6 °F /  -0.8 °C 21.6 °F /  -5.8 °C 29.70 in /  1005.6 hPa Calm     69 % 0.00 in /  0 mm
00:27 30.5 °F /  -0.8 °C 21.5 °F /  -5.8 °C 29.70 in /  1005.6 hPa Calm   1.2 mph /  1.9 km/h 69 % 0.00 in /  0 mm
00:32 30.5 °F /  -0.8 °C 21.5 °F /  -5.8 °C 29.70 in /  1005.6 hPa Calm     69 % 0.00 in /  0 mm
00:37 30.4 °F /  -0.9 °C 21.4 °F /  -5.9 °C 29.70 in /  1005.6 hPa Calm     69 % 0.00 in /  0 mm
00:42 30.4 °F /  -0.9 °C 21.8 °F /  -5.7 °C 29.70 in /  1005.6 hPa Calm     70 % 0.00 in /  0 mm
00:47 30.3 °F /  -0.9 °C 21.7 °F /  -5.7 °C 29.69 in /  1005.3 hPa Calm   1.2 mph /  1.9 km/h 70 % 0.00 in /  0 mm
00:52 30.3 °F /  -0.9 °C 21.7 °F /  -5.7 °C 29.70 in /  1005.6 hPa SW 0.1 mph /  0.2 km/h 1.2 mph /  1.9 km/h 70 % 0.00 in /  0 mm
00:57 30.2 °F /  -1 °C 21.9 °F /  -5.6 °C 29.69 in /  1005.3 hPa SW 0.1 mph /  0.2 km/h 1.2 mph /  1.9 km/h 71 % 0.00 in /  0 mm
01:02 30.2 °F /  -1 °C 22.3 °F /  -5.4 °C 29.69 in /  1005.3 hPa SW 0.3 mph /  0.5 km/h 1.2 mph /  1.9 km/h 72 % 0.00 in /  0 mm
01:07 30.2 °F /  -1 °C 22.6 °F /  -5.2 °C 29.69 in /  1005.3 hPa SW 0.1 mph /  0.2 km/h 1.2 mph /  1.9 km/h 73 % 0.00 in /  0 mm
01:12 30.1 °F /  -1.1 °C 22.5 °F /  -5.3 °C 29.69 in /  1005.3 hPa SW 0.1 mph /  0.2 km/h 1.2 mph /  1.9 km/h 73 % 0.00 in /  0 mm
01:17 30.1 °F /  -1.1 °C 22.8 °F /  -5.1 °C 29.69 in /  1005.3 hPa SW 0.1 mph /  0.2 km/h 1.0 mph /  1.6 km/h 74 % 0.00 in /  0 mm
01:22 30.1 °F /  -1.1 °C 23.1 °F /  -4.9 °C 29.69 in /  1005.3 hPa SW 0.3 mph /  0.5 km/h 1.2 mph /  1.9 km/h 75 % 0.00 in /  0 mm
01:27 30.0 °F /  -1.1 °C 23.0 °F /  -5 °C 29.69 in /  1005.3 hPa SW 1.6 mph /  2.6 km/h 2.3 mph /  3.7 km/h 75 % 0.00 in /  0 mm
01:32 30.0 °F /  -1.1 °C 23.7 °F /  -4.6 °C 29.70 in /  1005.6 hPa Calm   1.2 mph /  1.9 km/h 77 % 0.00 in /  0 mm
01:37 30.0 °F /  -1.1 °C 23.7 °F /  -4.6 °C 29.70 in /  1005.6 hPa Calm   1.0 mph /  1.6 km/h 77 % 0.00 in /  0 mm
01:42 30.0 °F /  -1.1 °C 23.7 °F /  -4.6 °C 29.70 in /  1005.6 hPa Calm     77 % 0.00 in /  0 mm
01:47 29.9 °F /  -1.2 °C 23.6 °F /  -4.7 °C 29.70 in /  1005.6 hPa Calm     77 % 0.00 in /  0 mm
01:53 29.8 °F /  -1.2 °C 23.2 °F /  -4.9 °C 29.70 in /  1005.6 hPa Calm     76 % 0.00 in /  0 mm
01:58 29.7 °F /  -1.3 °C 23.1 °F /  -4.9 °C 29.69 in /  1005.3 hPa Calm     76 % 0.00 in /  0 mm
02:03 29.6 °F /  -1.3 °C 23.0 °F /  -5 °C 29.69 in /  1005.3 hPa Calm     76 % 0.00 in /  0 mm
02:08 29.5 °F /  -1.4 °C 22.9 °F /  -5.1 °C 29.69 in /  1005.3 hPa Calm     76 % 0.00 in /  0 mm
02:13 29.5 °F /  -1.4 °C 22.9 °F /  -5.1 °C 29.69 in /  1005.3 hPa Calm   1.2 mph /  1.9 km/h 76 % 0.00 in /  0 mm
02:18 29.4 °F /  -1.4 °C 23.1 °F /  -4.9 °C 29.69 in /  1005.3 hPa Calm   1.2 mph /  1.9 km/h 77 % 0.00 in /  0 mm
02:23 29.4 °F /  -1.4 °C 23.1 °F /  -4.9 °C 29.69 in /  1005.3 hPa Calm     77 % 0.00 in /  0 mm
02:28 29.4 °F /  -1.4 °C 23.4 °F /  -4.8 °C 29.69 in /  1005.3 hPa Calm     78 % 0.00 in /  0 mm
02:33 29.5 °F /  -1.4 °C 23.5 °F /  -4.7 °C 29.70 in /  1005.6 hPa WNW 0.2 mph /  0.3 km/h 1.2 mph /  1.9 km/h 78 % 0.00 in /  0 mm
02:38 29.6 °F /  -1.3 °C 24.2 °F /  -4.3 °C 29.70 in /  1005.6 hPa North 2.2 mph /  3.5 km/h 3.5 mph /  5.6 km/h 80 % 0.00 in /  0 mm
02:43 30.1 °F /  -1.1 °C 24.7 °F /  -4.1 °C 29.70 in /  1005.6 hPa North 0.5 mph /  0.8 km/h 1.2 mph /  1.9 km/h 80 % 0.00 in /  0 mm
02:48 30.4 °F /  -0.9 °C 25.0 °F /  -3.9 °C 29.70 in /  1005.6 hPa NNE 4.1 mph /  6.6 km/h 6.0 mph /  9.7 km/h 80 % 0.00 in /  0 mm
02:53 30.6 °F /  -0.8 °C 24.6 °F /  -4.1 °C 29.69 in /  1005.3 hPa NNE 3.5 mph /  5.6 km/h 4.6 mph /  7.4 km/h 78 % 0.00 in /  0 mm
02:58 30.9 °F /  -0.6 °C 24.5 °F /  -4.2 °C 29.69 in /  1005.3 hPa NNE 3.3 mph /  5.3 km/h 4.6 mph /  7.4 km/h 77 % 0.00 in /  0 mm
03:03 31.2 °F /  -0.4 °C 24.8 °F /  -4 °C 29.69 in /  1005.3 hPa NNE 3.3 mph /  5.3 km/h 6.9 mph /  11.1 km/h 77 % 0.00 in /  0 mm
03:08 31.6 °F /  -0.2 °C 25.2 °F /  -3.8 °C 29.69 in /  1005.3 hPa North 3.9 mph /  6.3 km/h 5.0 mph /  8 km/h 77 % 0.00 in /  0 mm
03:13 32.0 °F /  0 °C 25.6 °F /  -3.6 °C 29.70 in /  1005.6 hPa North 2.7 mph /  4.3 km/h 5.0 mph /  8 km/h 77 % 0.00 in /  0 mm
03:18 32.4 °F /  0.2 °C 26.0 °F /  -3.3 °C 29.70 in /  1005.6 hPa NNW 0.8 mph /  1.3 km/h 3.5 mph /  5.6 km/h 77 % 0.00 in /  0 mm
03:23 32.7 °F /  0.4 °C 26.3 °F /  -3.2 °C 29.69 in /  1005.3 hPa North 3.2 mph /  5.1 km/h 4.6 mph /  7.4 km/h 77 % 0.00 in /  0 mm
03:28 32.8 °F /  0.4 °C 26.1 °F /  -3.3 °C 29.70 in /  1005.6 hPa North 3.0 mph /  4.8 km/h 6.0 mph /  9.7 km/h 76 % 0.00 in /  0 mm
03:34 33.0 °F /  0.6 °C 25.9 °F /  -3.4 °C 29.70 in /  1005.6 hPa North 3.0 mph /  4.8 km/h 7.0 mph /  11.3 km/h 75 % 0.00 in /  0 mm
03:39 33.2 °F /  0.7 °C 26.1 °F /  -3.3 °C 29.70 in /  1005.6 hPa North 3.0 mph /  4.8 km/h 6.0 mph /  9.7 km/h 75 % 0.00 in /  0 mm
03:43 33.2 °F /  0.7 °C 25.8 °F /  -3.4 °C 29.70 in /  1005.6 hPa North 2.0 mph /  3.2 km/h 5.0 mph /  8 km/h 74 % 0.00 in /  0 mm
03:49 33.3 °F /  0.7 °C 25.6 °F /  -3.6 °C 29.70 in /  1005.6 hPa North 3.0 mph /  4.8 km/h 6.0 mph /  9.7 km/h 73 % 0.00 in /  0 mm
03:54 33.4 °F /  0.8 °C 25.3 °F /  -3.7 °C 29.70 in /  1005.6 hPa North 2.1 mph /  3.4 km/h 3.5 mph /  5.6 km/h 72 % 0.00 in /  0 mm
03:59 33.4 °F /  0.8 °C 25.3 °F /  -3.7 °C 29.70 in /  1005.6 hPa North 2.0 mph /  3.2 km/h 3.5 mph /  5.6 km/h 72 % 0.00 in /  0 mm
04:04 33.3 °F /  0.7 °C 24.9 °F /  -3.9 °C 29.70 in /  1005.6 hPa NNE 4.1 mph /  6.6 km/h 4.6 mph /  7.4 km/h 71 % 0.00 in /  0 mm
04:09 33.3 °F /  0.7 °C 24.9 °F /  -3.9 °C 29.70 in /  1005.6 hPa North 3.8 mph /  6.1 km/h 8.1 mph /  13 km/h 71 % 0.00 in /  0 mm
04:14 33.3 °F /  0.7 °C 24.6 °F /  -4.1 °C 29.70 in /  1005.6 hPa North 2.8 mph /  4.5 km/h 4.6 mph /  7.4 km/h 70 % 0.00 in /  0 mm
04:19 33.3 °F /  0.7 °C 24.9 °F /  -3.9 °C 29.70 in /  1005.6 hPa North 0.5 mph /  0.8 km/h 3.0 mph /  4.8 km/h 71 % 0.00 in /  0 mm
04:24 33.3 °F /  0.7 °C 25.2 °F /  -3.8 °C 29.71 in /  1006 hPa North 3.6 mph /  5.8 km/h 5.8 mph /  9.3 km/h 72 % 0.00 in /  0 mm
04:29 33.2 °F /  0.7 °C 25.1 °F /  -3.8 °C 29.71 in /  1006 hPa NNE 3.4 mph /  5.5 km/h 6.0 mph /  9.7 km/h 72 % 0.00 in /  0 mm
04:34 33.2 °F /  0.7 °C 25.1 °F /  -3.8 °C 29.71 in /  1006 hPa NNE 1.9 mph /  3.1 km/h 5.8 mph /  9.3 km/h 72 % 0.00 in /  0 mm
04:39 33.2 °F /  0.7 °C 25.1 °F /  -3.8 °C 29.71 in /  1006 hPa NNW 3.4 mph /  5.5 km/h 5.8 mph /  9.3 km/h 72 % 0.00 in /  0 mm
04:44 33.1 °F /  0.6 °C 25.1 °F /  -3.8 °C 29.71 in /  1006 hPa North 4.7 mph /  7.6 km/h 6.0 mph /  9.7 km/h 72 % 0.00 in /  0 mm
04:49 33.0 °F /  0.6 °C 25.0 °F /  -3.9 °C 29.71 in /  1006 hPa North 1.9 mph /  3.1 km/h 6.0 mph /  9.7 km/h 72 % 0.00 in /  0 mm
04:54 33.0 °F /  0.6 °C 25.0 °F /  -3.9 °C 29.72 in /  1006.3 hPa NNW 3.2 mph /  5.1 km/h 6.9 mph /  11.1 km/h 72 % 0.00 in /  0 mm
04:59 32.9 °F /  0.5 °C 24.9 °F /  -3.9 °C 29.71 in /  1006 hPa North 2.5 mph /  4 km/h 5.8 mph /  9.3 km/h 72 % 0.00 in /  0 mm
05:04 32.8 °F /  0.4 °C 24.4 °F /  -4.2 °C 29.72 in /  1006.3 hPa North 1.8 mph /  2.9 km/h 7.0 mph /  11.3 km/h 71 % 0.00 in /  0 mm
05:09 32.8 °F /  0.4 °C 24.4 °F /  -4.2 °C 29.71 in /  1006 hPa NNE 2.3 mph /  3.7 km/h 4.6 mph /  7.4 km/h 71 % 0.00 in /  0 mm
05:14 32.8 °F /  0.4 °C 24.4 °F /  -4.2 °C 29.72 in /  1006.3 hPa NNE 3.2 mph /  5.1 km/h 6.9 mph /  11.1 km/h 71 % 0.00 in /  0 mm
05:19 32.7 °F /  0.4 °C 24.0 °F /  -4.4 °C 29.72 in /  1006.3 hPa NNW 6.3 mph /  10.1 km/h 11.5 mph /  18.5 km/h 70 % 0.00 in /  0 mm
05:24 32.6 °F /  0.3 °C 23.9 °F /  -4.5 °C 29.72 in /  1006.3 hPa NNE 4.7 mph /  7.6 km/h 10.4 mph /  16.7 km/h 70 % 0.00 in /  0 mm
05:29 32.6 °F /  0.3 °C 24.2 °F /  -4.3 °C 29.72 in /  1006.3 hPa North 4.4 mph /  7.1 km/h 9.2 mph /  14.8 km/h 71 % 0.00 in /  0 mm
05:35 32.5 °F /  0.3 °C 24.1 °F /  -4.4 °C 29.72 in /  1006.3 hPa North 4.0 mph /  6.4 km/h 6.9 mph /  11.1 km/h 71 % 0.00 in /  0 mm
05:40 32.5 °F /  0.3 °C 24.1 °F /  -4.4 °C 29.72 in /  1006.3 hPa North 0.7 mph /  1.1 km/h 3.5 mph /  5.6 km/h 71 % 0.00 in /  0 mm
05:45 32.4 °F /  0.2 °C 24.0 °F /  -4.4 °C 29.72 in /  1006.3 hPa NNE 5.7 mph /  9.2 km/h 10.4 mph /  16.7 km/h 71 % 0.00 in /  0 mm
05:50 32.4 °F /  0.2 °C 24.0 °F /  -4.4 °C 29.72 in /  1006.3 hPa North 4.8 mph /  7.7 km/h 10.4 mph /  16.7 km/h 71 % 0.00 in /  0 mm
05:55 32.3 °F /  0.2 °C 23.9 °F /  -4.5 °C 29.72 in /  1006.3 hPa NNE 6.3 mph /  10.1 km/h 9.2 mph /  14.8 km/h 71 % 0.00 in /  0 mm
06:00 32.3 °F /  0.2 °C 23.9 °F /  -4.5 °C 29.72 in /  1006.3 hPa North 5.1 mph /  8.2 km/h 10.4 mph /  16.7 km/h 71 % 0.00 in /  0 mm
06:05 32.2 °F /  0.1 °C 23.8 °F /  -4.6 °C 29.72 in /  1006.3 hPa NNE 6.0 mph /  9.7 km/h 6.0 mph /  9.7 km/h 71 % 0.00 in /  0 mm
06:10 32.1 °F /  0.1 °C 23.8 °F /  -4.6 °C 29.72 in /  1006.3 hPa NE 5.9 mph /  9.5 km/h 9.2 mph /  14.8 km/h 71 % 0.00 in /  0 mm
06:15 32.1 °F /  0.1 °C 23.8 °F /  -4.6 °C 29.72 in /  1006.3 hPa NE 4.1 mph /  6.6 km/h 6.9 mph /  11.1 km/h 71 % 0.00 in /  0 mm
06:20 32.0 °F /  0 °C 23.7 °F /  -4.6 °C 29.72 in /  1006.3 hPa NNE 5.9 mph /  9.5 km/h 9.2 mph /  14.8 km/h 71 % 0.00 in /  0 mm
06:25 32.0 °F /  0 °C 23.3 °F /  -4.8 °C 29.73 in /  1006.7 hPa NNE 5.5 mph /  8.9 km/h 6.9 mph /  11.1 km/h 70 % 0.00 in /  0 mm
06:30 31.9 °F /  -0.1 °C 23.6 °F /  -4.7 °C 29.73 in /  1006.7 hPa NE 5.1 mph /  8.2 km/h 8.0 mph /  12.9 km/h 71 % 0.00 in /  0 mm
06:35 31.9 °F /  -0.1 °C 23.2 °F /  -4.9 °C 29.73 in /  1006.7 hPa NNE 4.9 mph /  7.9 km/h 10.4 mph /  16.7 km/h 70 % 0.00 in /  0 mm
06:40 31.9 °F /  -0.1 °C 23.2 °F /  -4.9 °C 29.73 in /  1006.7 hPa NNE 4.7 mph /  7.6 km/h 11.5 mph /  18.5 km/h 70 % 0.00 in /  0 mm
06:45 31.9 °F /  -0.1 °C 22.9 °F /  -5.1 °C 29.73 in /  1006.7 hPa North 4.6 mph /  7.4 km/h 6.9 mph /  11.1 km/h 69 % 0.00 in /  0 mm
06:50 31.9 °F /  -0.1 °C 23.2 °F /  -4.9 °C 29.73 in /  1006.7 hPa NNE 5.2 mph /  8.4 km/h 6.9 mph /  11.1 km/h 70 % 0.00 in /  0 mm
06:55 31.9 °F /  -0.1 °C 23.2 °F /  -4.9 °C 29.73 in /  1006.7 hPa North 5.2 mph /  8.4 km/h 7.0 mph /  11.3 km/h 70 % 0.00 in /  0 mm
07:00 31.9 °F /  -0.1 °C 23.2 °F /  -4.9 °C 29.73 in /  1006.7 hPa North 3.7 mph /  6 km/h 5.8 mph /  9.3 km/h 70 % 0.00 in /  0 mm
07:06 31.9 °F /  -0.1 °C 23.2 °F /  -4.9 °C 29.73 in /  1006.7 hPa NNE 4.9 mph /  7.9 km/h 5.8 mph /  9.3 km/h 70 % 0.00 in /  0 mm
07:11 31.9 °F /  -0.1 °C 23.2 °F /  -4.9 °C 29.73 in /  1006.7 hPa NNE 3.1 mph /  5 km/h 4.6 mph /  7.4 km/h 70 % 0.00 in /  0 mm
07:16 31.9 °F /  -0.1 °C 22.9 °F /  -5.1 °C 29.73 in /  1006.7 hPa NNE 4.7 mph /  7.6 km/h 9.2 mph /  14.8 km/h 69 % 0.00 in /  0 mm
07:21 31.9 °F /  -0.1 °C 22.9 °F /  -5.1 °C 29.73 in /  1006.7 hPa NNE 3.8 mph /  6.1 km/h 6.9 mph /  11.1 km/h 69 % 0.00 in /  0 mm
07:26 32.0 °F /  0 °C 23.0 °F /  -5 °C 29.73 in /  1006.7 hPa North 4.4 mph /  7.1 km/h 6.0 mph /  9.7 km/h 69 % 0.00 in /  0 mm
07:31 32.0 °F /  0 °C 23.3 °F /  -4.8 °C 29.73 in /  1006.7 hPa North 3.8 mph /  6.1 km/h 6.9 mph /  11.1 km/h 70 % 0.00 in /  0 mm
07:36 32.1 °F /  0.1 °C 23.4 °F /  -4.8 °C 29.73 in /  1006.7 hPa NNE 6.4 mph /  10.3 km/h 9.2 mph /  14.8 km/h 70 % 0.00 in /  0 mm
07:41 32.1 °F /  0.1 °C 23.1 °F /  -4.9 °C 29.73 in /  1006.7 hPa North 5.5 mph /  8.9 km/h 8.1 mph /  13 km/h 69 % 0.00 in /  0 mm
07:46 32.1 °F /  0.1 °C 22.7 °F /  -5.2 °C 29.73 in /  1006.7 hPa North 5.5 mph /  8.9 km/h 9.2 mph /  14.8 km/h 68 % 0.00 in /  0 mm
07:51 32.2 °F /  0.1 °C 22.5 °F /  -5.3 °C 29.73 in /  1006.7 hPa North 4.1 mph /  6.6 km/h 7.0 mph /  11.3 km/h 67 % 0.00 in /  0 mm
07:56 32.2 °F /  0.1 °C 22.5 °F /  -5.3 °C 29.73 in /  1006.7 hPa North 6.7 mph /  10.8 km/h 9.0 mph /  14.5 km/h 67 % 0.00 in /  0 mm
08:01 32.3 °F /  0.2 °C 22.6 °F /  -5.2 °C 29.73 in /  1006.7 hPa North 3.3 mph /  5.3 km/h 5.0 mph /  8 km/h 67 % 0.00 in /  0 mm
08:07 32.4 °F /  0.2 °C 22.7 °F /  -5.2 °C 29.73 in /  1006.7 hPa North 1.8 mph /  2.9 km/h 4.6 mph /  7.4 km/h 67 % 0.00 in /  0 mm
08:12 32.6 °F /  0.3 °C 22.8 °F /  -5.1 °C 29.73 in /  1006.7 hPa NNE 4.0 mph /  6.4 km/h 9.2 mph /  14.8 km/h 67 % 0.00 in /  0 mm
08:17 32.9 °F /  0.5 °C 23.1 °F /  -4.9 °C 29.74 in /  1007 hPa North 3.6 mph /  5.8 km/h 8.1 mph /  13 km/h 67 % 0.00 in /  0 mm
08:22 33.1 °F /  0.6 °C 23.3 °F /  -4.8 °C 29.74 in /  1007 hPa NE 4.1 mph /  6.6 km/h 5.8 mph /  9.3 km/h 67 % 0.00 in /  0 mm
08:27 33.2 °F /  0.7 °C 23.4 °F /  -4.8 °C 29.74 in /  1007 hPa North 1.2 mph /  1.9 km/h 3.5 mph /  5.6 km/h 67 % 0.00 in /  0 mm
08:32 33.5 °F /  0.8 °C 23.7 °F /  -4.6 °C 29.74 in /  1007 hPa NNE 4.8 mph /  7.7 km/h 5.8 mph /  9.3 km/h 67 % 0.00 in /  0 mm
08:37 33.7 °F /  0.9 °C 24.3 °F /  -4.3 °C 29.74 in /  1007 hPa NNW 4.2 mph /  6.8 km/h 6.9 mph /  11.1 km/h 68 % 0.00 in /  0 mm
08:42 33.9 °F /  1.1 °C 24.4 °F /  -4.2 °C 29.74 in /  1007 hPa North 4.1 mph /  6.6 km/h 6.9 mph /  11.1 km/h 68 % 0.00 in /  0 mm
08:47 34.1 °F /  1.2 °C 24.6 °F /  -4.1 °C 29.74 in /  1007 hPa NNW 0.6 mph /  1 km/h 4.6 mph /  7.4 km/h 68 % 0.00 in /  0 mm
08:52 34.2 °F /  1.2 °C 24.7 °F /  -4.1 °C 29.74 in /  1007 hPa North 5.3 mph /  8.5 km/h 8.1 mph /  13 km/h 68 % 0.00 in /  0 mm
08:57 34.2 °F /  1.2 °C 23.7 °F /  -4.6 °C 29.74 in /  1007 hPa North 5.1 mph /  8.2 km/h 8.1 mph /  13 km/h 65 % 0.00 in /  0 mm
09:02 34.3 °F /  1.3 °C 23.7 °F /  -4.6 °C 29.75 in /  1007.3 hPa North 4.5 mph /  7.2 km/h 8.1 mph /  13 km/h 65 % 0.00 in /  0 mm
09:07 34.2 °F /  1.2 °C 22.5 °F /  -5.3 °C 29.75 in /  1007.3 hPa NNE 6.5 mph /  10.5 km/h 8.1 mph /  13 km/h 62 % 0.00 in /  0 mm
09:12 34.1 °F /  1.2 °C 22.0 °F /  -5.6 °C 29.75 in /  1007.3 hPa NNE 5.4 mph /  8.7 km/h 6.9 mph /  11.1 km/h 61 % 0.00 in /  0 mm
09:17 34.1 °F /  1.2 °C 21.7 °F /  -5.7 °C 29.75 in /  1007.3 hPa NNE 3.0 mph /  4.8 km/h 5.8 mph /  9.3 km/h 60 % 0.00 in /  0 mm
09:22 34.0 °F /  1.1 °C 21.2 °F /  -6 °C 29.75 in /  1007.3 hPa North 4.3 mph /  6.9 km/h 10.4 mph /  16.7 km/h 59 % 0.00 in /  0 mm
09:28 34.0 °F /  1.1 °C 21.6 °F /  -5.8 °C 29.75 in /  1007.3 hPa NNE 4.0 mph /  6.4 km/h 8.1 mph /  13 km/h 60 % 0.00 in /  0 mm
09:33 33.9 °F /  1.1 °C 21.5 °F /  -5.8 °C 29.76 in /  1007.7 hPa North 4.4 mph /  7.1 km/h 6.9 mph /  11.1 km/h 60 % 0.00 in /  0 mm
09:38 33.9 °F /  1.1 °C 21.9 °F /  -5.6 °C 29.76 in /  1007.7 hPa NE 4.0 mph /  6.4 km/h 6.9 mph /  11.1 km/h 61 % 0.00 in /  0 mm
09:43 34.0 °F /  1.1 °C 22.0 °F /  -5.6 °C 29.76 in /  1007.7 hPa North 2.4 mph /  3.9 km/h 3.5 mph /  5.6 km/h 61 % 0.00 in /  0 mm
09:48 34.1 °F /  1.2 °C 21.7 °F /  -5.7 °C 29.75 in /  1007.3 hPa NNW 2.9 mph /  4.7 km/h 6.0 mph /  9.7 km/h 60 % 0.00 in /  0 mm
09:53 34.2 °F /  1.2 °C 21.7 °F /  -5.7 °C 29.75 in /  1007.3 hPa North 4.5 mph /  7.2 km/h 5.8 mph /  9.3 km/h 60 % 0.00 in /  0 mm
09:58 34.3 °F /  1.3 °C 22.2 °F /  -5.4 °C 29.76 in /  1007.7 hPa North 2.4 mph /  3.9 km/h 3.5 mph /  5.6 km/h 61 % 0.00 in /  0 mm
10:03 34.3 °F /  1.3 °C 21.4 °F /  -5.9 °C 29.76 in /  1007.7 hPa NW 2.0 mph /  3.2 km/h 3.5 mph /  5.6 km/h 59 % 0.00 in /  0 mm
10:08 34.4 °F /  1.3 °C 21.5 °F /  -5.8 °C 29.76 in /  1007.7 hPa NW 1.0 mph /  1.6 km/h 3.5 mph /  5.6 km/h 59 % 0.00 in /  0 mm
10:13 34.4 °F /  1.3 °C 21.9 °F /  -5.6 °C 29.76 in /  1007.7 hPa NW 0.6 mph /  1 km/h 2.3 mph /  3.7 km/h 60 % 0.00 in /  0 mm
10:14 34.5 °F /  1.4 °C 22.0 °F /  -5.6 °C 29.76 in /  1007.7 hPa NW 0.8 mph /  1.3 km/h 2.3 mph /  3.7 km/h 60 % 0.00 in /  0 mm
10:19 34.6 °F /  1.4 °C 22.1 °F /  -5.5 °C 29.76 in /  1007.7 hPa North 1.9 mph /  3.1 km/h 3.5 mph /  5.6 km/h 60 % 0.00 in /  0 mm
10:24 34.8 °F /  1.6 °C 21.9 °F /  -5.6 °C 29.76 in /  1007.7 hPa NNW 0.4 mph /  0.6 km/h 2.3 mph /  3.7 km/h 59 % 0.00 in /  0 mm
10:29 35.2 °F /  1.8 °C 22.3 °F /  -5.4 °C 29.76 in /  1007.7 hPa North 4.0 mph /  6.4 km/h 4.6 mph /  7.4 km/h 59 % 0.00 in /  0 mm
10:34 35.7 °F /  2.1 °C 21.5 °F /  -5.8 °C 29.76 in /  1007.7 hPa Calm   1.2 mph /  1.9 km/h 56 % 0.00 in /  0 mm
10:39 35.9 °F /  2.2 °C 21.3 °F /  -5.9 °C 29.76 in /  1007.7 hPa WNW 1.8 mph /  2.9 km/h 3.5 mph /  5.6 km/h 55 % 0.00 in /  0 mm
10:44 36.0 °F /  2.2 °C 21.4 °F /  -5.9 °C 29.76 in /  1007.7 hPa NW 0.9 mph /  1.4 km/h 2.3 mph /  3.7 km/h 55 % 0.00 in /  0 mm
10:49 36.0 °F /  2.2 °C 21.4 °F /  -5.9 °C 29.76 in /  1007.7 hPa NNW 0.1 mph /  0.2 km/h 2.0 mph /  3.2 km/h 55 % 0.00 in /  0 mm
10:54 36.0 °F /  2.2 °C 21.4 °F /  -5.9 °C 29.76 in /  1007.7 hPa NW 2.2 mph /  3.5 km/h 3.5 mph /  5.6 km/h 55 % 0.00 in /  0 mm
10:59 35.9 °F /  2.2 °C 20.9 °F /  -6.2 °C 29.76 in /  1007.7 hPa NW 2.8 mph /  4.5 km/h 5.0 mph /  8 km/h 54 % 0.00 in /  0 mm
11:04 35.9 °F /  2.2 °C 21.7 °F /  -5.7 °C 29.76 in /  1007.7 hPa West 2.0 mph /  3.2 km/h 5.0 mph /  8 km/h 56 % 0.00 in /  0 mm
11:09 35.8 °F /  2.1 °C 19.4 °F /  -7 °C 29.76 in /  1007.7 hPa NW 5.0 mph /  8 km/h 8.1 mph /  13 km/h 51 % 0.00 in /  0 mm
11:15 35.7 °F /  2.1 °C 19.8 °F /  -6.8 °C 29.75 in /  1007.3 hPa NW 0.5 mph /  0.8 km/h 3.5 mph /  5.6 km/h 52 % 0.00 in /  0 mm
11:19 35.7 °F /  2.1 °C 19.8 °F /  -6.8 °C 29.75 in /  1007.3 hPa WNW 2.9 mph /  4.7 km/h 9.0 mph /  14.5 km/h 52 % 0.00 in /  0 mm
11:20 35.7 °F /  2.1 °C 19.8 °F /  -6.8 °C 29.75 in /  1007.3 hPa WNW 3.9 mph /  6.3 km/h 9.2 mph /  14.8 km/h 52 % 0.00 in /  0 mm
11:21 35.8 °F /  2.1 °C 19.4 °F /  -7 °C 29.75 in /  1007.3 hPa WNW 3.1 mph /  5 km/h 9.2 mph /  14.8 km/h 51 % 0.00 in /  0 mm
11:25 35.8 °F /  2.1 °C 19.0 °F /  -7.2 °C 29.75 in /  1007.3 hPa NW 2.4 mph /  3.9 km/h 4.6 mph /  7.4 km/h 50 % 0.00 in /  0 mm
11:26 35.8 °F /  2.1 °C 19.0 °F /  -7.2 °C 29.75 in /  1007.3 hPa NNW 2.9 mph /  4.7 km/h 4.6 mph /  7.4 km/h 50 % 0.00 in /  0 mm
11:31 35.8 °F /  2.1 °C 19.0 °F /  -7.2 °C 29.75 in /  1007.3 hPa NNW 3.1 mph /  5 km/h 5.8 mph /  9.3 km/h 50 % 0.00 in /  0 mm
11:36 35.9 °F /  2.2 °C 18.6 °F /  -7.4 °C 29.75 in /  1007.3 hPa NW 1.8 mph /  2.9 km/h 6.9 mph /  11.1 km/h 49 % 0.00 in /  0 mm
11:41 35.9 °F /  2.2 °C 18.6 °F /  -7.4 °C 29.75 in /  1007.3 hPa NW 4.2 mph /  6.8 km/h 5.8 mph /  9.3 km/h 49 % 0.00 in /  0 mm
11:46 36.0 °F /  2.2 °C 18.7 °F /  -7.4 °C 29.75 in /  1007.3 hPa WNW 3.1 mph /  5 km/h 6.9 mph /  11.1 km/h 49 % 0.00 in /  0 mm
11:57 36.1 °F /  2.3 °C 19.2 °F /  -7.1 °C 29.75 in /  1007.3 hPa NW 3.2 mph /  5.1 km/h 4.6 mph /  7.4 km/h 50 % 0.00 in /  0 mm
12:02 36.2 °F /  2.3 °C 18.9 °F /  -7.3 °C 29.74 in /  1007 hPa WNW 2.7 mph /  4.3 km/h 5.0 mph /  8 km/h 49 % 0.00 in /  0 mm
12:08 36.2 °F /  2.3 °C 18.9 °F /  -7.3 °C 29.74 in /  1007 hPa WNW 4.9 mph /  7.9 km/h 8.1 mph /  13 km/h 49 % 0.00 in /  0 mm
12:13 36.2 °F /  2.3 °C 17.9 °F /  -7.8 °C 29.74 in /  1007 hPa WNW 2.4 mph /  3.9 km/h 5.8 mph /  9.3 km/h 47 % 0.00 in /  0 mm
12:18 36.2 °F /  2.3 °C 17.9 °F /  -7.8 °C 29.74 in /  1007 hPa WNW 3.0 mph /  4.8 km/h 7.0 mph /  11.3 km/h 47 % 0.00 in /  0 mm
12:23 36.3 °F /  2.4 °C 17.0 °F /  -8.3 °C 29.73 in /  1006.7 hPa West 3.1 mph /  5 km/h 11.5 mph /  18.5 km/h 45 % 0.00 in /  0 mm
12:28 36.4 °F /  2.4 °C 18.6 °F /  -7.4 °C 29.74 in /  1007 hPa NNW 5.1 mph /  8.2 km/h 5.8 mph /  9.3 km/h 48 % 0.00 in /  0 mm
12:35 36.4 °F /  2.4 °C 18.1 °F /  -7.7 °C 29.73 in /  1006.7 hPa WNW 6.4 mph /  10.3 km/h 11.5 mph /  18.5 km/h 47 % 0.00 in /  0 mm
12:40 36.5 °F /  2.5 °C 18.2 °F /  -7.7 °C 29.74 in /  1007 hPa WSW 4.7 mph /  7.6 km/h 11.5 mph /  18.5 km/h 47 % 0.00 in /  0 mm
12:45 36.5 °F /  2.5 °C 17.7 °F /  -7.9 °C 29.73 in /  1006.7 hPa NNW 5.1 mph /  8.2 km/h 11.5 mph /  18.5 km/h 46 % 0.00 in /  0 mm
12:50 36.4 °F /  2.4 °C 17.6 °F /  -8 °C 29.73 in /  1006.7 hPa West 8.2 mph /  13.2 km/h 13.8 mph /  22.2 km/h 46 % 0.00 in /  0 mm
12:55 36.2 °F /  2.3 °C 17.4 °F /  -8.1 °C 29.73 in /  1006.7 hPa WNW 3.0 mph /  4.8 km/h 8.1 mph /  13 km/h 46 % 0.00 in /  0 mm
13:03 36.2 °F /  2.3 °C 17.9 °F /  -7.8 °C 29.73 in /  1006.7 hPa WNW 4.2 mph /  6.8 km/h 10.4 mph /  16.7 km/h 47 % 0.00 in /  0 mm
13:08 36.4 °F /  2.4 °C 18.1 °F /  -7.7 °C 29.72 in /  1006.3 hPa North 5.3 mph /  8.5 km/h 10.4 mph /  16.7 km/h 47 % 0.00 in /  0 mm
13:13 36.5 °F /  2.5 °C 17.1 °F /  -8.3 °C 29.72 in /  1006.3 hPa NW 6.1 mph /  9.8 km/h 9.2 mph /  14.8 km/h 45 % 0.00 in /  0 mm
13:18 36.6 °F /  2.6 °C 18.2 °F /  -7.7 °C 29.73 in /  1006.7 hPa NW 5.7 mph /  9.2 km/h 10.4 mph /  16.7 km/h 47 % 0.00 in /  0 mm
13:23 36.8 °F /  2.7 °C 17.9 °F /  -7.8 °C 29.73 in /  1006.7 hPa WNW 5.0 mph /  8 km/h 11.5 mph /  18.5 km/h 46 % 0.00 in /  0 mm
13:28 37.1 °F /  2.8 °C 19.2 °F /  -7.1 °C 29.73 in /  1006.7 hPa WNW 4.7 mph /  7.6 km/h 8.1 mph /  13 km/h 48 % 0.00 in /  0 mm
13:33 37.2 °F /  2.9 °C 18.3 °F /  -7.6 °C 29.73 in /  1006.7 hPa NW 6.1 mph /  9.8 km/h 14.0 mph /  22.5 km/h 46 % 0.00 in /  0 mm
13:38 37.1 °F /  2.8 °C 17.7 °F /  -7.9 °C 29.73 in /  1006.7 hPa West 4.8 mph /  7.7 km/h 9.2 mph /  14.8 km/h 45 % 0.00 in /  0 mm
13:43 37.0 °F /  2.8 °C 18.6 °F /  -7.4 °C 29.73 in /  1006.7 hPa WNW 5.2 mph /  8.4 km/h 9.2 mph /  14.8 km/h 47 % 0.00 in /  0 mm
13:48 36.9 °F /  2.7 °C 18.0 °F /  -7.8 °C 29.73 in /  1006.7 hPa NW 5.2 mph /  8.4 km/h 11.5 mph /  18.5 km/h 46 % 0.00 in /  0 mm
13:53 37.0 °F /  2.8 °C 18.6 °F /  -7.4 °C 29.73 in /  1006.7 hPa NW 4.6 mph /  7.4 km/h 6.9 mph /  11.1 km/h 47 % 0.00 in /  0 mm
13:58 37.4 °F /  3 °C 20.0 °F /  -6.7 °C 29.73 in /  1006.7 hPa WNW 5.0 mph /  8 km/h 9.2 mph /  14.8 km/h 49 % 0.00 in /  0 mm
14:03 37.5 °F /  3.1 °C 18.6 °F /  -7.4 °C 29.72 in /  1006.3 hPa NW 6.5 mph /  10.5 km/h 10.4 mph /  16.7 km/h 46 % 0.00 in /  0 mm
14:08 37.4 °F /  3 °C 18.5 °F /  -7.5 °C 29.72 in /  1006.3 hPa NNE 4.6 mph /  7.4 km/h 8.1 mph /  13 km/h 46 % 0.00 in /  0 mm
14:13 37.4 °F /  3 °C 18.5 °F /  -7.5 °C 29.72 in /  1006.3 hPa WNW 5.1 mph /  8.2 km/h 10.4 mph /  16.7 km/h 46 % 0.00 in /  0 mm
14:18 37.3 °F /  2.9 °C 18.9 °F /  -7.3 °C 29.72 in /  1006.3 hPa NW 5.9 mph /  9.5 km/h 11.5 mph /  18.5 km/h 47 % 0.00 in /  0 mm
14:23 37.2 °F /  2.9 °C 18.3 °F /  -7.6 °C 29.72 in /  1006.3 hPa NW 5.2 mph /  8.4 km/h 8.1 mph /  13 km/h 46 % 0.00 in /  0 mm
14:28 37.1 °F /  2.8 °C 18.7 °F /  -7.4 °C 29.73 in /  1006.7 hPa WNW 8.5 mph /  13.7 km/h 11.5 mph /  18.5 km/h 47 % 0.00 in /  0 mm
14:33 37.0 °F /  2.8 °C 18.6 °F /  -7.4 °C 29.73 in /  1006.7 hPa WNW 4.3 mph /  6.9 km/h 11.0 mph /  17.7 km/h 47 % 0.00 in /  0 mm
14:38 36.8 °F /  2.7 °C 17.4 °F /  -8.1 °C 29.73 in /  1006.7 hPa West 8.4 mph /  13.5 km/h 15.0 mph /  24.1 km/h 45 % 0.00 in /  0 mm
14:43 36.6 °F /  2.6 °C 19.2 °F /  -7.1 °C 29.73 in /  1006.7 hPa NW 4.3 mph /  6.9 km/h 8.0 mph /  12.9 km/h 49 % 0.00 in /  0 mm
14:48 36.5 °F /  2.5 °C 18.2 °F /  -7.7 °C 29.73 in /  1006.7 hPa WNW 7.3 mph /  11.7 km/h 13.8 mph /  22.2 km/h 47 % 0.00 in /  0 mm
14:53 36.4 °F /  2.4 °C 18.1 °F /  -7.7 °C 29.73 in /  1006.7 hPa NW 5.8 mph /  9.3 km/h 11.5 mph /  18.5 km/h 47 % 0.00 in /  0 mm
14:58 36.2 °F /  2.3 °C 17.9 °F /  -7.8 °C 29.73 in /  1006.7 hPa West 4.7 mph /  7.6 km/h 6.9 mph /  11.1 km/h 47 % 0.00 in /  0 mm
15:03 36.2 °F /  2.3 °C 18.8 °F /  -7.3 °C 29.74 in /  1007 hPa WNW 7.0 mph /  11.3 km/h 12.0 mph /  19.3 km/h 49 % 0.00 in /  0 mm
15:08 36.0 °F /  2.2 °C 17.7 °F /  -7.9 °C 29.74 in /  1007 hPa NW 3.0 mph /  4.8 km/h 8.0 mph /  12.9 km/h 47 % 0.00 in /  0 mm
15:13 36.0 °F /  2.2 °C 18.2 °F /  -7.7 °C 29.74 in /  1007 hPa NW 3.0 mph /  4.8 km/h 10.0 mph /  16.1 km/h 48 % 0.00 in /  0 mm
15:18 35.9 °F /  2.2 °C 18.1 °F /  -7.7 °C 29.74 in /  1007 hPa NW 5.7 mph /  9.2 km/h 10.4 mph /  16.7 km/h 48 % 0.00 in /  0 mm
15:23 35.8 °F /  2.1 °C 18.0 °F /  -7.8 °C 29.74 in /  1007 hPa WNW 3.0 mph /  4.8 km/h 10.0 mph /  16.1 km/h 48 % 0.00 in /  0 mm
15:28 35.7 °F /  2.1 °C 17.9 °F /  -7.8 °C 29.75 in /  1007.3 hPa NW 7.0 mph /  11.3 km/h 13.0 mph /  20.9 km/h 48 % 0.00 in /  0 mm
15:33 35.7 °F /  2.1 °C 18.4 °F /  -7.6 °C 29.75 in /  1007.3 hPa NW 7.0 mph /  11.3 km/h 14.0 mph /  22.5 km/h 49 % 0.00 in /  0 mm
15:38 35.7 °F /  2.1 °C 17.9 °F /  -7.8 °C 29.75 in /  1007.3 hPa NW 5.8 mph /  9.3 km/h 11.5 mph /  18.5 km/h 48 % 0.00 in /  0 mm
15:43 35.6 °F /  2 °C 17.8 °F /  -7.9 °C 29.75 in /  1007.3 hPa NW 5.0 mph /  8 km/h 12.0 mph /  19.3 km/h 48 % 0.00 in /  0 mm
15:48 35.6 °F /  2 °C 17.8 °F /  -7.9 °C 29.76 in /  1007.7 hPa NW 7.0 mph /  11.3 km/h 13.0 mph /  20.9 km/h 48 % 0.00 in /  0 mm
15:53 35.5 °F /  1.9 °C 17.7 °F /  -7.9 °C 29.76 in /  1007.7 hPa NW 2.0 mph /  3.2 km/h 11.0 mph /  17.7 km/h 48 % 0.00 in /  0 mm
15:58 35.3 °F /  1.8 °C 18.0 °F /  -7.8 °C 29.76 in /  1007.7 hPa WNW 6.2 mph /  10 km/h 10.4 mph /  16.7 km/h 49 % 0.00 in /  0 mm
16:03 35.3 °F /  1.8 °C 17.5 °F /  -8.1 °C 29.76 in /  1007.7 hPa NNW 7.0 mph /  11.3 km/h 13.0 mph /  20.9 km/h 48 % 0.00 in /  0 mm
16:08 35.2 °F /  1.8 °C 17.0 °F /  -8.3 °C 29.76 in /  1007.7 hPa NW 5.0 mph /  8 km/h 12.0 mph /  19.3 km/h 47 % 0.00 in /  0 mm
16:13 35.1 °F /  1.7 °C 17.4 °F /  -8.1 °C 29.76 in /  1007.7 hPa NW 5.0 mph /  8 km/h 10.0 mph /  16.1 km/h 48 % 0.00 in /  0 mm
16:18 35.0 °F /  1.7 °C 18.2 °F /  -7.7 °C 29.76 in /  1007.7 hPa NW 5.0 mph /  8 km/h 9.0 mph /  14.5 km/h 50 % 0.00 in /  0 mm
16:23 34.8 °F /  1.6 °C 17.1 °F /  -8.3 °C 29.76 in /  1007.7 hPa NW 5.0 mph /  8 km/h 10.0 mph /  16.1 km/h 48 % 0.00 in /  0 mm
16:28 34.8 °F /  1.6 °C 17.6 °F /  -8 °C 29.77 in /  1008 hPa NW 5.0 mph /  8 km/h 10.0 mph /  16.1 km/h 49 % 0.00 in /  0 mm
16:33 34.7 °F /  1.5 °C 17.5 °F /  -8.1 °C 29.77 in /  1008 hPa WNW 3.2 mph /  5.1 km/h 10.4 mph /  16.7 km/h 49 % 0.00 in /  0 mm
16:38 34.6 °F /  1.4 °C 16.9 °F /  -8.4 °C 29.77 in /  1008 hPa NW 5.0 mph /  8 km/h 12.0 mph /  19.3 km/h 48 % 0.00 in /  0 mm
16:43 34.5 °F /  1.4 °C 17.3 °F /  -8.2 °C 29.77 in /  1008 hPa NW 3.0 mph /  4.8 km/h 12.0 mph /  19.3 km/h 49 % 0.00 in /  0 mm
16:48 34.4 °F /  1.3 °C 18.1 °F /  -7.7 °C 29.78 in /  1008.4 hPa WNW 6.0 mph /  9.7 km/h 12.0 mph /  19.3 km/h 51 % 0.00 in /  0 mm
16:53 34.3 °F /  1.3 °C 17.1 °F /  -8.3 °C 29.78 in /  1008.4 hPa WNW 3.0 mph /  4.8 km/h 10.0 mph /  16.1 km/h 49 % 0.00 in /  0 mm
16:59 34.2 °F /  1.2 °C 17.0 °F /  -8.3 °C 29.78 in /  1008.4 hPa WNW 4.7 mph /  7.6 km/h 12.0 mph /  19.3 km/h 49 % 0.00 in /  0 mm
17:04 34.2 °F /  1.2 °C 17.0 °F /  -8.3 °C 29.78 in /  1008.4 hPa WNW 3.8 mph /  6.1 km/h 8.1 mph /  13 km/h 49 % 0.00 in /  0 mm
17:06 34.1 °F /  1.2 °C 16.4 °F /  -8.7 °C 29.78 in /  1008.4 hPa NW 3.6 mph /  5.8 km/h 11.5 mph /  18.5 km/h 48 % 0.00 in /  0 mm
17:12 34.0 °F /  1.1 °C 16.8 °F /  -8.4 °C 29.78 in /  1008.4 hPa WNW 2.6 mph /  4.2 km/h 10.4 mph /  16.7 km/h 49 % 0.00 in /  0 mm
17:17 34.0 °F /  1.1 °C 17.3 °F /  -8.2 °C 29.79 in /  1008.7 hPa WNW 5.0 mph /  8 km/h 9.2 mph /  14.8 km/h 50 % 0.00 in /  0 mm
17:22 33.9 °F /  1.1 °C 17.2 °F /  -8.2 °C 29.79 in /  1008.7 hPa WNW 4.5 mph /  7.2 km/h 13.0 mph /  20.9 km/h 50 % 0.00 in /  0 mm
17:27 33.9 °F /  1.1 °C 16.7 °F /  -8.5 °C 29.79 in /  1008.7 hPa WNW 2.9 mph /  4.7 km/h 11.5 mph /  18.5 km/h 49 % 0.00 in /  0 mm
17:32 33.8 °F /  1 °C 16.6 °F /  -8.6 °C 29.80 in /  1009 hPa West 6.3 mph /  10.1 km/h 11.5 mph /  18.5 km/h 49 % 0.00 in /  0 mm
17:37 33.7 °F /  0.9 °C 16.5 °F /  -8.6 °C 29.80 in /  1009 hPa WNW 5.7 mph /  9.2 km/h 13.8 mph /  22.2 km/h 49 % 0.00 in /  0 mm
17:42 33.6 °F /  0.9 °C 17.4 °F /  -8.1 °C 29.81 in /  1009.4 hPa NW 1.7 mph /  2.7 km/h 9.2 mph /  14.8 km/h 51 % 0.00 in /  0 mm
17:47 33.5 °F /  0.8 °C 16.8 °F /  -8.4 °C 29.81 in /  1009.4 hPa NNW 2.6 mph /  4.2 km/h 4.6 mph /  7.4 km/h 50 % 0.00 in /  0 mm
17:52 33.4 °F /  0.8 °C 16.7 °F /  -8.5 °C 29.81 in /  1009.4 hPa WNW 3.8 mph /  6.1 km/h 7.0 mph /  11.3 km/h 50 % 0.00 in /  0 mm
17:57 33.4 °F /  0.8 °C 16.3 °F /  -8.7 °C 29.81 in /  1009.4 hPa NW 6.2 mph /  10 km/h 12.0 mph /  19.3 km/h 49 % 0.00 in /  0 mm
18:02 33.4 °F /  0.8 °C 16.3 °F /  -8.7 °C 29.82 in /  1009.7 hPa WNW 5.3 mph /  8.5 km/h 11.0 mph /  17.7 km/h 49 % 0.00 in /  0 mm
18:07 33.3 °F /  0.7 °C 17.1 °F /  -8.3 °C 29.82 in /  1009.7 hPa West 5.3 mph /  8.5 km/h 9.0 mph /  14.5 km/h 51 % 0.00 in /  0 mm
18:12 33.3 °F /  0.7 °C 17.1 °F /  -8.3 °C 29.82 in /  1009.7 hPa NW 3.7 mph /  6 km/h 5.8 mph /  9.3 km/h 51 % 0.00 in /  0 mm
18:17 33.3 °F /  0.7 °C 17.1 °F /  -8.3 °C 29.82 in /  1009.7 hPa WNW 6.5 mph /  10.5 km/h 11.5 mph /  18.5 km/h 51 % 0.00 in /  0 mm
18:22 33.2 °F /  0.7 °C 16.5 °F /  -8.6 °C 29.83 in /  1010 hPa North 4.7 mph /  7.6 km/h 6.9 mph /  11.1 km/h 50 % 0.00 in /  0 mm
18:27 33.2 °F /  0.7 °C 16.5 °F /  -8.6 °C 29.83 in /  1010 hPa NW 3.7 mph /  6 km/h 6.9 mph /  11.1 km/h 50 % 0.00 in /  0 mm
18:32 33.2 °F /  0.7 °C 16.5 °F /  -8.6 °C 29.83 in /  1010 hPa NW 6.7 mph /  10.8 km/h 15.0 mph /  24.1 km/h 50 % 0.00 in /  0 mm
18:37 33.2 °F /  0.7 °C 16.1 °F /  -8.8 °C 29.83 in /  1010 hPa NNW 6.9 mph /  11.1 km/h 10.4 mph /  16.7 km/h 49 % 0.00 in /  0 mm
18:42 33.2 °F /  0.7 °C 15.6 °F /  -9.1 °C 29.84 in /  1010.4 hPa NW 4.3 mph /  6.9 km/h 8.1 mph /  13 km/h 48 % 0.00 in /  0 mm
18:47 33.2 °F /  0.7 °C 16.5 °F /  -8.6 °C 29.84 in /  1010.4 hPa West 6.7 mph /  10.8 km/h 9.0 mph /  14.5 km/h 50 % 0.00 in /  0 mm
18:52 33.2 °F /  0.7 °C 16.1 °F /  -8.8 °C 29.85 in /  1010.7 hPa WNW 5.8 mph /  9.3 km/h 11.5 mph /  18.5 km/h 49 % 0.00 in /  0 mm
18:57 33.2 °F /  0.7 °C 15.6 °F /  -9.1 °C 29.85 in /  1010.7 hPa WNW 2.2 mph /  3.5 km/h 12.7 mph /  20.4 km/h 48 % 0.00 in /  0 mm
19:02 33.2 °F /  0.7 °C 15.6 °F /  -9.1 °C 29.85 in /  1010.7 hPa WNW 5.0 mph /  8 km/h 10.0 mph /  16.1 km/h 48 % 0.00 in /  0 mm
19:07 33.1 °F /  0.6 °C 15.5 °F /  -9.2 °C 29.85 in /  1010.7 hPa WNW 4.0 mph /  6.4 km/h 11.5 mph /  18.5 km/h 48 % 0.00 in /  0 mm
19:12 33.1 °F /  0.6 °C 15.0 °F /  -9.4 °C 29.85 in /  1010.7 hPa NNW 5.6 mph /  9 km/h 11.5 mph /  18.5 km/h 47 % 0.00 in /  0 mm
19:17 33.1 °F /  0.6 °C 16.0 °F /  -8.9 °C 29.86 in /  1011.1 hPa NW 3.7 mph /  6 km/h 10.4 mph /  16.7 km/h 49 % 0.00 in /  0 mm
19:23 33.0 °F /  0.6 °C 16.8 °F /  -8.4 °C 29.86 in /  1011.1 hPa NNW 4.2 mph /  6.8 km/h 13.0 mph /  20.9 km/h 51 % 0.00 in /  0 mm
19:28 32.9 °F /  0.5 °C 15.8 °F /  -9 °C 29.86 in /  1011.1 hPa NNW 7.5 mph /  12.1 km/h 15.0 mph /  24.1 km/h 49 % 0.00 in /  0 mm
19:33 32.9 °F /  0.5 °C 15.8 °F /  -9 °C 29.86 in /  1011.1 hPa NW 4.2 mph /  6.8 km/h 8.1 mph /  13 km/h 49 % 0.00 in /  0 mm
19:38 32.9 °F /  0.5 °C 16.3 °F /  -8.7 °C 29.86 in /  1011.1 hPa NW 5.3 mph /  8.5 km/h 6.9 mph /  11.1 km/h 50 % 0.00 in /  0 mm
19:43 32.9 °F /  0.5 °C 15.8 °F /  -9 °C 29.86 in /  1011.1 hPa WNW 5.5 mph /  8.9 km/h 11.5 mph /  18.5 km/h 49 % 0.00 in /  0 mm
19:48 32.8 °F /  0.4 °C 16.2 °F /  -8.8 °C 29.86 in /  1011.1 hPa West 1.6 mph /  2.6 km/h 11.5 mph /  18.5 km/h 50 % 0.00 in /  0 mm
19:53 32.8 °F /  0.4 °C 15.7 °F /  -9.1 °C 29.87 in /  1011.4 hPa NW 6.7 mph /  10.8 km/h 12.7 mph /  20.4 km/h 49 % 0.00 in /  0 mm
19:58 32.7 °F /  0.4 °C 15.6 °F /  -9.1 °C 29.87 in /  1011.4 hPa NNW 2.1 mph /  3.4 km/h 3.5 mph /  5.6 km/h 49 % 0.00 in /  0 mm
20:03 32.6 °F /  0.3 °C 16.0 °F /  -8.9 °C 29.87 in /  1011.4 hPa NW 2.8 mph /  4.5 km/h 9.0 mph /  14.5 km/h 50 % 0.00 in /  0 mm
20:08 32.6 °F /  0.3 °C 15.5 °F /  -9.2 °C 29.87 in /  1011.4 hPa NNW 2.4 mph /  3.9 km/h 4.6 mph /  7.4 km/h 49 % 0.00 in /  0 mm
20:13 32.5 °F /  0.3 °C 15.0 °F /  -9.4 °C 29.88 in /  1011.7 hPa WNW 8.2 mph /  13.2 km/h 13.8 mph /  22.2 km/h 48 % 0.00 in /  0 mm
20:18 32.5 °F /  0.3 °C 14.5 °F /  -9.7 °C 29.88 in /  1011.7 hPa WNW 4.9 mph /  7.9 km/h 11.0 mph /  17.7 km/h 47 % 0.00 in /  0 mm
20:23 32.5 °F /  0.3 °C 15.0 °F /  -9.4 °C 29.88 in /  1011.7 hPa NW 3.6 mph /  5.8 km/h 9.2 mph /  14.8 km/h 48 % 0.00 in /  0 mm
20:28 32.4 °F /  0.2 °C 15.3 °F /  -9.3 °C 29.88 in /  1011.7 hPa WNW 1.9 mph /  3.1 km/h 8.1 mph /  13 km/h 49 % 0.00 in /  0 mm
20:33 32.4 °F /  0.2 °C 15.3 °F /  -9.3 °C 29.88 in /  1011.7 hPa NW 7.1 mph /  11.4 km/h 9.2 mph /  14.8 km/h 49 % 0.00 in /  0 mm
20:38 32.3 °F /  0.2 °C 15.7 °F /  -9.1 °C 29.88 in /  1011.7 hPa NW 6.2 mph /  10 km/h 9.2 mph /  14.8 km/h 50 % 0.00 in /  0 mm
20:43 32.2 °F /  0.1 °C 16.1 °F /  -8.8 °C 29.89 in /  1012.1 hPa North 4.4 mph /  7.1 km/h 9.2 mph /  14.8 km/h 51 % 0.00 in /  0 mm
20:48 32.1 °F /  0.1 °C 16.0 °F /  -8.9 °C 29.89 in /  1012.1 hPa NNW 5.6 mph /  9 km/h 9.2 mph /  14.8 km/h 51 % 0.00 in /  0 mm
20:53 32.0 °F /  0 °C 15.0 °F /  -9.4 °C 29.89 in /  1012.1 hPa WSW 5.6 mph /  9 km/h 7.0 mph /  11.3 km/h 49 % 0.00 in /  0 mm
20:58 31.9 °F /  -0.1 °C 15.3 °F /  -9.3 °C 29.89 in /  1012.1 hPa NW 6.4 mph /  10.3 km/h 15.0 mph /  24.1 km/h 50 % 0.00 in /  0 mm
21:03 31.8 °F /  -0.1 °C 14.3 °F /  -9.8 °C 29.90 in /  1012.4 hPa WNW 4.9 mph /  7.9 km/h 15.0 mph /  24.1 km/h 48 % 0.00 in /  0 mm
21:08 31.8 °F /  -0.1 °C 14.3 °F /  -9.8 °C 29.90 in /  1012.4 hPa NW 6.5 mph /  10.5 km/h 10.0 mph /  16.1 km/h 48 % 0.00 in /  0 mm
21:13 31.7 °F /  -0.2 °C 14.2 °F /  -9.9 °C 29.90 in /  1012.4 hPa NW 4.5 mph /  7.2 km/h 10.4 mph /  16.7 km/h 48 % 0.00 in /  0 mm
21:18 31.7 °F /  -0.2 °C 14.7 °F /  -9.6 °C 29.90 in /  1012.4 hPa WNW 6.0 mph /  9.7 km/h 9.2 mph /  14.8 km/h 49 % 0.00 in /  0 mm
21:23 31.6 °F /  -0.2 °C 14.6 °F /  -9.7 °C 29.90 in /  1012.4 hPa WNW 8.0 mph /  12.9 km/h 13.0 mph /  20.9 km/h 49 % 0.00 in /  0 mm
21:28 31.5 °F /  -0.3 °C 13.6 °F /  -10.2 °C 29.91 in /  1012.8 hPa WNW 6.0 mph /  9.7 km/h 14.0 mph /  22.5 km/h 47 % 0.00 in /  0 mm
21:33 31.5 °F /  -0.3 °C 13.6 °F /  -10.2 °C 29.91 in /  1012.8 hPa WNW 7.0 mph /  11.3 km/h 12.0 mph /  19.3 km/h 47 % 0.00 in /  0 mm
21:38 31.4 °F /  -0.3 °C 13.5 °F /  -10.3 °C 29.91 in /  1012.8 hPa NW 7.0 mph /  11.3 km/h 14.0 mph /  22.5 km/h 47 % 0.00 in /  0 mm
21:43 31.4 °F /  -0.3 °C 14.4 °F /  -9.8 °C 29.91 in /  1012.8 hPa WNW 5.0 mph /  8 km/h 9.0 mph /  14.5 km/h 49 % 0.00 in /  0 mm
21:48 31.3 °F /  -0.4 °C 14.3 °F /  -9.8 °C 29.92 in /  1013.1 hPa WNW 5.0 mph /  8 km/h 12.0 mph /  19.3 km/h 49 % 0.00 in /  0 mm
21:53 31.2 °F /  -0.4 °C 14.2 °F /  -9.9 °C 29.92 in /  1013.1 hPa WNW 3.0 mph /  4.8 km/h 13.0 mph /  20.9 km/h 49 % 0.00 in /  0 mm
21:58 31.1 °F /  -0.5 °C 14.1 °F /  -9.9 °C 29.92 in /  1013.1 hPa WNW 5.3 mph /  8.5 km/h 10.4 mph /  16.7 km/h 49 % 0.00 in /  0 mm
22:03 31.1 °F /  -0.5 °C 13.7 °F /  -10.2 °C 29.92 in /  1013.1 hPa WNW 5.0 mph /  8 km/h 12.0 mph /  19.3 km/h 48 % 0.00 in /  0 mm
22:08 31.0 °F /  -0.6 °C 13.6 °F /  -10.2 °C 29.92 in /  1013.1 hPa WNW 2.0 mph /  3.2 km/h 10.0 mph /  16.1 km/h 48 % 0.00 in /  0 mm
22:13 30.9 °F /  -0.6 °C 13.5 °F /  -10.3 °C 29.92 in /  1013.1 hPa WNW 2.0 mph /  3.2 km/h 13.0 mph /  20.9 km/h 48 % 0.00 in /  0 mm
22:18 30.8 °F /  -0.7 °C 13.4 °F /  -10.3 °C 29.93 in /  1013.4 hPa NW 6.0 mph /  9.7 km/h 10.0 mph /  16.1 km/h 48 % 0.00 in /  0 mm
22:23 30.8 °F /  -0.7 °C 13.4 °F /  -10.3 °C 29.93 in /  1013.4 hPa NW 3.0 mph /  4.8 km/h 8.0 mph /  12.9 km/h 48 % 0.00 in /  0 mm
22:28 30.8 °F /  -0.7 °C 13.4 °F /  -10.3 °C 29.93 in /  1013.4 hPa WNW 6.0 mph /  9.7 km/h 12.0 mph /  19.3 km/h 48 % 0.00 in /  0 mm
22:33 30.7 °F /  -0.7 °C 12.9 °F /  -10.6 °C 29.93 in /  1013.4 hPa WNW 5.0 mph /  8 km/h 12.0 mph /  19.3 km/h 47 % 0.00 in /  0 mm
22:38 30.7 °F /  -0.7 °C 12.8 °F /  -10.7 °C 29.93 in /  1013.4 hPa West 5.0 mph /  8 km/h 12.0 mph /  19.3 km/h 47 % 0.00 in /  0 mm
22:43 30.7 °F /  -0.7 °C 12.3 °F /  -10.9 °C 29.93 in /  1013.4 hPa WNW 6.0 mph /  9.7 km/h 16.0 mph /  25.7 km/h 46 % 0.00 in /  0 mm
22:48 30.7 °F /  -0.7 °C 12.3 °F /  -10.9 °C 29.93 in /  1013.4 hPa NW 6.0 mph /  9.7 km/h 13.0 mph /  20.9 km/h 46 % 0.00 in /  0 mm
22:53 30.7 °F /  -0.7 °C 13.3 °F /  -10.4 °C 29.93 in /  1013.4 hPa NW 3.9 mph /  6.3 km/h 11.0 mph /  17.7 km/h 48 % 0.00 in /  0 mm
22:59 30.6 °F /  -0.8 °C 13.2 °F /  -10.4 °C 29.93 in /  1013.4 hPa WNW 4.0 mph /  6.4 km/h 9.2 mph /  14.8 km/h 48 % 0.00 in /  0 mm
23:04 30.5 °F /  -0.8 °C 12.2 °F /  -11 °C 29.93 in /  1013.4 hPa West 7.1 mph /  11.4 km/h 12.7 mph /  20.4 km/h 46 % 0.00 in /  0 mm
23:09 30.5 °F /  -0.8 °C 12.2 °F /  -11 °C 29.94 in /  1013.8 hPa NW 4.2 mph /  6.8 km/h 9.2 mph /  14.8 km/h 46 % 0.00 in /  0 mm
23:14 30.5 °F /  -0.8 °C 12.2 °F /  -11 °C 29.94 in /  1013.8 hPa NW 3.1 mph /  5 km/h 11.5 mph /  18.5 km/h 46 % 0.00 in /  0 mm
23:19 30.4 °F /  -0.9 °C 11.6 °F /  -11.3 °C 29.94 in /  1013.8 hPa NW 8.2 mph /  13.2 km/h 12.7 mph /  20.4 km/h 45 % 0.00 in /  0 mm
23:24 30.3 °F /  -0.9 °C 12.0 °F /  -11.1 °C 29.94 in /  1013.8 hPa WSW 3.5 mph /  5.6 km/h 7.0 mph /  11.3 km/h 46 % 0.00 in /  0 mm
23:29 30.3 °F /  -0.9 °C 12.0 °F /  -11.1 °C 29.94 in /  1013.8 hPa NW 4.5 mph /  7.2 km/h 9.2 mph /  14.8 km/h 46 % 0.00 in /  0 mm
23:34 30.3 °F /  -0.9 °C 11.5 °F /  -11.4 °C 29.93 in /  1013.4 hPa West 6.3 mph /  10.1 km/h 9.2 mph /  14.8 km/h 45 % 0.00 in /  0 mm
23:39 30.2 °F /  -1 °C 12.4 °F /  -10.9 °C 29.94 in /  1013.8 hPa West 6.2 mph /  10 km/h 11.5 mph /  18.5 km/h 47 % 0.00 in /  0 mm
23:44 30.1 °F /  -1.1 °C 11.8 °F /  -11.2 °C 29.93 in /  1013.4 hPa West 3.1 mph /  5 km/h 8.1 mph /  13 km/h 46 % 0.00 in /  0 mm
23:49 30.0 °F /  -1.1 °C 12.2 °F /  -11 °C 29.93 in /  1013.4 hPa NW 4.0 mph /  6.4 km/h 5.8 mph /  9.3 km/h 47 % 0.00 in /  0 mm
23:54 29.9 °F /  -1.2 °C 12.6 °F /  -10.8 °C 29.93 in /  1013.4 hPa NW 4.1 mph /  6.6 km/h 6.0 mph /  9.7 km/h 48 % 0.00 in /  0 mm
23:59 29.8 °F /  -1.2 °C 12.5 °F /  -10.8 °C 29.93 in /  1013.4 hPa WSW 2.7 mph /  4.3 km/h 5.8 mph /  9.3 km/h 48 % 0.00 in /  0 mm
Crab Meadow Weather
Compliments of Weather Underground - 3 mb

Script developed by  Jim McMurry - jmcmurry@mwt.net Adapted for the template by  Wim van der Kuil - Leuven-Template.eu

Weather Terms: High Wind Warning - Sustained winds of 40 mph or greater for a duration of one hour or longer or gusts to 58 mph or greater.